Terminal Aerodrome Forecast
Issued by NWS

Home | Current Version | Previous Version | Text Only | Print | Product List | Glossary On
Versions: 1 2 3 4 5 6 7 8 9 10 11 12 13 14 15 16 17 18 19 20 21 22 23
000
FTUS44 KMOB 210520
TAFBFM
TAF
KBFM 210520Z 2106/2206 00000KT P6SM FEW009
      TEMPO 2108/2112 2SM TSRA BKN007CB
     FM211200 18009KT 2SM -TSRA BR OVC050CB
     FM211800 19010KT P6SM BKN030
     FM220000 17011KT 5SM BR OVC012 PROB30 2200/2206 3SM TSRA
      BKN012CB=

USA.gov is the U.S. government's official web portal to all federal, state and local government web resources and services.